Time;durP1;ratioP1;P1;durP2;ratioP2;P2;SDS_P1;SDS_P2;PMS_P1;PMS_P2;Temp;Humidity;BMP_temperature;BMP_pressure;BME280_temperature;BME280_humidity;BME280_pressure;Samples;Min_cycle;Max_cycle;Signal;HPM_P1;HPM_P2
2023/08/30 00:01:11;;;;;;;11.07;7.60;;;;;;;22.43;59.64;93740.13;4201010;28;20060;-72
2023/08/30 00:03:13;;;;;;;13.43;7.60;;;;;;;22.38;58.71;93745.44;4199117;28;20183;-76
2023/08/30 00:05:15;;;;;;;12.05;7.32;;;;;;;22.31;59.02;93740.31;4181591;28;20118;-73
2023/08/30 00:07:17;;;;;;;12.80;6.88;;;;;;;22.24;59.04;93729.88;4180230;28;20503;-74
2023/08/30 00:09:19;;;;;;;10.45;6.35;;;;;;;22.15;58.71;93725.22;4203064;28;20063;-73
2023/08/30 00:11:21;;;;;;;11.43;6.32;;;;;;;21.92;57.63;93739.69;4200155;28;20052;-75
2023/08/30 00:13:22;;;;;;;9.18;6.47;;;;;;;21.55;59.12;93749.19;4179970;28;20098;-76
2023/08/30 00:15:24;;;;;;;12.00;6.68;;;;;;;21.48;59.73;93748.56;4197860;28;20144;-74
2023/08/30 00:17:26;;;;;;;8.77;5.78;;;;;;;21.38;58.95;93751.91;4176388;28;20067;-76
2023/08/30 00:19:28;;;;;;;8.10;5.85;;;;;;;21.46;58.55;93753.34;4189277;28;20128;-76
2023/08/30 00:21:30;;;;;;;9.05;5.82;;;;;;;21.46;58.21;93756.00;4179311;28;20487;-75
2023/08/30 00:23:32;;;;;;;11.23;6.47;;;;;;;21.62;58.11;93749.81;4185596;28;20045;-74
2023/08/30 00:25:34;;;;;;;10.43;6.65;;;;;;;21.60;58.70;93743.13;4172249;28;20050;-76
2023/08/30 00:27:36;;;;;;;8.38;6.22;;;;;;;21.69;58.36;93736.28;4194563;28;20060;-74
2023/08/30 00:29:38;;;;;;;8.18;6.30;;;;;;;21.50;58.95;93733.16;4195899;28;20052;-74
2023/08/30 00:31:39;;;;;;;8.65;6.40;;;;;;;21.40;59.17;93743.66;4193239;28;20048;-73
2023/08/30 00:33:41;;;;;;;9.07;6.53;;;;;;;21.50;59.44;93746.47;4196594;28;20136;-74
2023/08/30 00:35:43;;;;;;;11.40;6.15;;;;;;;21.65;58.57;93743.97;4189893;28;20464;-77
2023/08/30 00:37:44;;;;;;;13.75;6.70;;;;;;;21.78;57.69;93734.75;4167681;28;20053;-74
2023/08/30 00:39:47;;;;;;;8.77;6.50;;;;;;;21.91;57.77;93727.41;4189826;28;20045;-75
2023/08/30 00:41:49;;;;;;;10.10;6.20;;;;;;;21.99;57.27;93730.44;4173441;28;20381;-75
2023/08/30 00:43:51;;;;;;;8.10;6.10;;;;;;;22.07;57.03;93731.84;4189082;28;20532;-74
2023/08/30 00:45:53;;;;;;;10.35;5.90;;;;;;;22.12;56.55;93723.06;4191632;28;20063;-73
2023/08/30 00:47:55;;;;;;;8.73;5.80;;;;;;;22.15;56.24;93727.88;4188767;28;20139;-76
2023/08/30 00:49:57;;;;;;;10.00;6.60;;;;;;;22.12;56.53;93736.41;4173902;28;20046;-74
2023/08/30 00:52:02;;;;;;;10.75;5.70;;;;;;;22.06;56.05;93741.69;4190343;28;20127;-73
2023/08/30 00:54:04;;;;;;;10.48;5.40;;;;;;;22.12;55.68;93739.06;4196242;28;20129;-74
2023/08/30 00:56:05;;;;;;;9.70;5.43;;;;;;;22.14;55.61;93752.97;4183563;28;20041;-74
2023/08/30 00:58:07;;;;;;;9.60;6.18;;;;;;;22.14;55.24;93750.28;4190484;28;20052;-75
2023/08/30 01:00:10;;;;;;;9.48;5.57;;;;;;;22.19;55.22;93750.31;4183025;28;20045;-74
2023/08/30 01:02:12;;;;;;;9.90;5.47;;;;;;;22.15;54.89;93751.91;4187513;28;20539;-74
2023/08/30 01:04:14;;;;;;;10.07;5.82;;;;;;;22.13;54.89;93746.00;4192086;28;20411;-73
2023/08/30 01:06:16;;;;;;;10.25;5.50;;;;;;;22.12;55.04;93744.41;4172275;28;20472;-74
2023/08/30 01:08:17;;;;;;;9.45;5.45;;;;;;;22.02;55.49;93742.44;4192800;28;20106;-74
2023/08/30 01:10:42;;;;;;;10.27;5.53;;;;;;;21.97;55.52;93745.88;4190898;28;20064;-75
2023/08/30 01:12:48;;;;;;;8.18;5.60;;;;;;;22.02;55.45;93753.91;4192323;28;20079;-76
2023/08/30 01:15:00;;;;;;;13.48;6.25;;;;;;;22.08;55.01;93754.78;4179641;28;20056;-75
2023/08/30 01:17:02;;;;;;;13.70;5.97;;;;;;;22.03;55.24;93763.53;4173617;28;20084;-73
2023/08/30 01:19:20;;;;;;;7.05;5.35;;;;;;;21.97;55.47;93759.22;4191958;28;20123;-74
2023/08/30 01:21:54;;;;;;;8.68;5.97;;;;;;;21.99;55.60;93766.97;4188653;28;20063;-75
2023/08/30 01:24:00;;;;;;;8.82;5.82;;;;;;;21.99;55.42;93762.44;4187243;28;20099;-74
2023/08/30 01:26:16;;;;;;;9.05;5.35;;;;;;;22.03;55.22;93762.75;4187540;28;20052;-73
2023/08/30 01:28:21;;;;;;;8.07;5.75;;;;;;;22.02;55.63;93769.91;4177097;28;20044;-74
2023/08/30 01:30:26;;;;;;;8.90;5.07;;;;;;;22.05;55.66;93766.75;4164857;28;20180;-74
2023/08/30 01:32:31;;;;;;;8.38;5.60;;;;;;;22.11;55.15;93756.13;4177095;28;20057;-74
2023/08/30 01:34:34;;;;;;;7.65;5.47;;;;;;;22.14;55.22;93755.63;4178111;28;20045;-76
2023/08/30 01:36:36;;;;;;;10.35;5.55;;;;;;;22.17;54.89;93753.25;4192854;28;20052;-75
2023/08/30 01:38:39;;;;;;;11.07;5.32;;;;;;;22.22;55.09;93749.81;4172823;28;20080;-75
2023/08/30 01:40:43;;;;;;;17.90;5.60;;;;;;;22.25;54.71;93757.34;4167790;28;20163;-74
2023/08/30 01:42:46;;;;;;;8.18;5.28;;;;;;;22.26;54.35;93757.09;4168510;28;20068;-75
2023/08/30 01:44:49;;;;;;;10.60;5.47;;;;;;;22.28;54.34;93760.31;4191191;28;20114;-74
2023/08/30 01:46:51;;;;;;;;;;;;;;;22.32;54.51;93770.47;4173617;28;20045;-74
2023/08/30 01:48:53;;;;;;;11.52;5.68;;;;;;;22.20;54.69;93762.59;4177095;28;19943;-73
2023/08/30 01:50:58;;;;;;;8.85;5.75;;;;;;;22.19;54.87;93758.34;4167631;28;20080;-74
2023/08/30 01:53:02;;;;;;;9.25;5.78;;;;;;;22.24;54.41;93750.38;4174193;28;20205;-75
2023/08/30 01:55:07;;;;;;;8.95;5.20;;;;;;;22.27;54.20;93750.69;4171783;28;20049;-75
2023/08/30 01:57:09;;;;;;;10.20;5.45;;;;;;;22.32;53.95;93757.13;4197104;28;20460;-74
2023/08/30 01:59:10;;;;;;;9.20;5.82;;;;;;;22.35;54.13;93757.44;4190763;28;20052;-74
2023/08/30 02:01:12;;;;;;;9.27;5.65;;;;;;;22.37;54.02;93757.16;4193625;28;20071;-74
2023/08/30 02:03:14;;;;;;;9.40;5.40;;;;;;;22.35;54.10;93757.44;4192238;28;20078;-72
2023/08/30 02:05:16;;;;;;;10.15;5.55;;;;;;;22.35;54.05;93751.28;4192881;28;20564;-74
2023/08/30 02:07:26;;;;;;;6.85;5.03;;;;;;;22.29;53.91;93755.78;4192499;28;20134;-75
2023/08/30 02:09:33;;;;;;;9.50;5.70;;;;;;;22.31;53.91;93755.53;4188168;28;20067;-74
2023/08/30 02:11:36;;;;;;;8.18;5.32;;;;;;;22.25;54.45;93749.34;4190147;28;20189;-76
2023/08/30 02:13:38;;;;;;;10.93;5.60;;;;;;;22.19;54.38;93748.47;4175475;28;20055;-75
2023/08/30 02:15:42;;;;;;;6.60;5.30;;;;;;;22.14;54.68;93747.63;4179242;28;20099;-74
2023/08/30 02:17:45;;;;;;;11.85;6.10;;;;;;;22.00;55.18;93755.22;4163358;28;20372;-74
2023/08/30 02:19:47;;;;;;;10.40;5.70;;;;;;;21.86;55.69;93750.31;4173371;28;20049;-73
2023/08/30 02:21:49;;;;;;;11.55;6.40;;;;;;;21.77;55.87;93754.50;4191785;28;20450;-76
2023/08/30 02:23:51;;;;;;;12.57;6.03;;;;;;;21.67;56.43;93751.72;4178275;28;20436;-75
2023/08/30 02:25:54;;;;;;;11.85;6.10;;;;;;;21.40;57.40;93744.47;4191064;28;20056;-74
2023/08/30 02:27:56;;;;;;;14.10;6.00;;;;;;;21.23;58.07;93743.72;4191275;28;20041;-73
2023/08/30 02:29:57;;;;;;;9.13;6.00;;;;;;;21.18;58.46;93741.81;4189599;28;20059;-74
2023/08/30 02:31:59;;;;;;;11.52;6.50;;;;;;;21.18;58.47;93744.47;4194030;28;20057;-75
2023/08/30 02:34:02;;;;;;;8.85;6.43;;;;;;;21.16;59.03;93748.44;4188556;28;20044;-74
2023/08/30 02:36:04;;;;;;;10.30;6.13;;;;;;;21.16;58.86;93743.91;4188424;28;20060;-74
2023/08/30 02:38:07;;;;;;;9.93;6.85;;;;;;;21.20;59.07;93749.56;4195248;28;20045;-73
2023/08/30 02:40:10;;;;;;;17.45;6.82;;;;;;;21.09;59.27;93755.81;4192699;28;20385;-74
2023/08/30 02:42:12;;;;;;;13.57;6.07;;;;;;;20.97;59.19;93747.94;4180063;28;20051;-73
2023/08/30 02:44:14;;;;;;;9.13;6.63;;;;;;;20.83;59.89;93740.31;4190074;28;20044;-75
2023/08/30 02:46:15;;;;;;;10.02;6.47;;;;;;;20.97;59.38;93739.94;4170959;28;20060;-75
2023/08/30 02:48:17;;;;;;;9.35;5.82;;;;;;;21.12;59.12;93748.13;4186730;28;20127;-75
2023/08/30 02:50:19;;;;;;;9.85;6.60;;;;;;;21.27;58.38;93740.34;4179589;28;20468;-75
2023/08/30 02:52:21;;;;;;;12.73;6.70;;;;;;;21.38;58.20;93746.59;4194598;28;20079;-74
2023/08/30 02:54:22;;;;;;;9.88;6.80;;;;;;;21.44;58.02;93734.94;4194140;28;20121;-76
2023/08/30 02:56:26;;;;;;;13.03;6.97;;;;;;;21.44;58.14;93736.81;4193701;28;20613;-74
2023/08/30 02:58:27;;;;;;;13.57;6.70;;;;;;;21.34;58.21;93732.16;4164511;28;20051;-74
2023/08/30 03:00:32;;;;;;;10.40;6.28;;;;;;;21.37;57.85;93733.50;4168924;28;20045;-73
2023/08/30 03:02:33;;;;;;;9.35;6.65;;;;;;;21.47;57.53;93733.66;4190610;28;20159;-74
2023/08/30 03:04:35;;;;;;;15.48;6.38;;;;;;;21.50;57.35;93732.34;4185164;28;20144;-74
2023/08/30 03:06:37;;;;;;;13.07;6.97;;;;;;;21.55;57.15;93735.06;4191845;28;20590;-77
2023/08/30 03:08:39;;;;;;;9.57;6.35;;;;;;;21.60;57.03;93737.78;4166922;28;20132;-77
2023/08/30 03:10:42;;;;;;;9.82;5.63;;;;;;;21.63;56.30;93731.94;4185662;28;20064;-74
2023/08/30 03:12:44;;;;;;;10.60;6.28;;;;;;;21.61;55.69;93734.06;4193449;28;20048;-75
2023/08/30 03:14:46;;;;;;;13.57;5.97;;;;;;;21.53;55.45;93735.31;4195374;28;20495;-75
2023/08/30 03:16:48;;;;;;;10.30;5.75;;;;;;;21.58;55.65;93750.56;4171225;28;20140;-74
2023/08/30 03:18:50;;;;;;;10.70;5.70;;;;;;;21.57;55.33;93747.06;4194619;28;20044;-74
2023/08/30 03:21:01;;;;;;;9.65;5.63;;;;;;;21.55;55.88;93749.19;4187334;28;20403;-75
2023/08/30 03:23:02;;;;;;;12.55;5.47;;;;;;;21.57;55.51;93748.94;4184478;28;20061;-76
2023/08/30 03:25:05;;;;;;;12.77;5.63;;;;;;;21.56;55.23;93734.81;4192926;28;20060;-74
2023/08/30 03:27:07;;;;;;;10.10;6.15;;;;;;;21.57;55.12;93725.75;4193689;28;20049;-72
2023/08/30 03:29:09;;;;;;;13.13;5.57;;;;;;;21.57;55.30;93724.94;4187448;28;20103;-74
2023/08/30 03:31:21;;;;;;;12.30;5.55;;;;;;;21.58;55.01;93723.91;4186726;28;20049;-76
2023/08/30 03:33:23;;;;;;;9.30;5.70;;;;;;;21.57;54.89;93719.63;4190906;28;20051;-75
2023/08/30 03:35:25;;;;;;;10.43;5.75;;;;;;;21.59;54.71;93720.19;4186658;28;20050;-75
2023/08/30 03:37:27;;;;;;;9.85;4.97;;;;;;;21.64;54.55;93723.72;4176510;28;20055;-75
2023/08/30 03:39:29;;;;;;;13.13;5.95;;;;;;;21.65;54.30;93714.66;4175651;28;20523;-76
2023/08/30 03:41:31;;;;;;;10.40;5.57;;;;;;;21.62;54.24;93720.50;4188086;28;20071;-73
2023/08/30 03:43:33;;;;;;;11.35;5.78;;;;;;;21.63;54.01;93718.63;4173750;28;20048;-75
2023/08/30 03:45:36;;;;;;;13.48;5.97;;;;;;;21.65;54.03;93706.66;4170339;28;20044;-74
2023/08/30 03:47:38;;;;;;;14.20;6.07;;;;;;;21.66;54.20;93713.59;4194199;28;20112;-72
2023/08/30 03:49:40;;;;;;;12.73;5.18;;;;;;;21.67;53.79;93715.19;4196775;28;20048;-76
2023/08/30 03:51:41;;;;;;;11.73;5.35;;;;;;;21.72;53.77;93721.63;4195215;28;20048;-76
2023/08/30 03:53:43;;;;;;;10.70;5.50;;;;;;;21.75;53.77;93724.63;4193828;28;20052;-75
2023/08/30 03:55:46;;;;;;;10.25;5.50;;;;;;;21.77;53.75;93725.16;4194532;28;20049;-75
2023/08/30 03:57:48;;;;;;;14.98;5.68;;;;;;;21.72;54.24;93732.31;4177373;28;20055;-76
2023/08/30 03:59:50;;;;;;;14.75;6.03;;;;;;;21.61;54.45;93739.38;4184941;28;20056;-75
2023/08/30 04:01:52;;;;;;;12.93;5.65;;;;;;;21.52;54.71;93747.03;4183771;28;20058;-76
2023/08/30 04:03:53;;;;;;;11.88;7.45;;;;;;;21.10;55.98;93754.75;4184841;28;20539;-73
2023/08/30 04:05:56;;;;;;;21.08;6.90;;;;;;;20.97;56.34;93745.25;4189757;28;20056;-74
2023/08/30 04:07:58;;;;;;;10.93;6.38;;;;;;;21.07;56.61;93754.19;4184050;28;20102;-75
2023/08/30 04:10:02;;;;;;;12.63;6.53;;;;;;;21.19;56.46;93742.63;4170474;28;20053;-75
2023/08/30 04:12:04;;;;;;;;;;;;;;;21.33;56.45;93735.06;4191723;28;20383;-74
2023/08/30 04:14:06;;;;;;;18.85;7.10;;;;;;;21.47;56.28;93739.00;4187622;28;19928;-75
2023/08/30 04:16:08;;;;;;;12.60;6.10;;;;;;;21.63;55.87;93753.28;4192635;28;20041;-75
2023/08/30 04:18:10;;;;;;;12.40;6.22;;;;;;;21.79;54.99;93759.56;4183095;28;20041;-76
2023/08/30 04:20:12;;;;;;;16.50;5.95;;;;;;;21.91;54.45;93757.53;4183371;28;20168;-75
2023/08/30 04:22:14;;;;;;;19.95;6.00;;;;;;;22.04;53.99;93749.13;4167979;28;20128;-74
2023/08/30 04:24:15;;;;;;;12.02;5.72;;;;;;;22.17;53.46;93758.56;4191006;28;20060;-76
2023/08/30 04:26:17;;;;;;;11.02;6.25;;;;;;;22.28;53.07;93762.16;4191996;28;20224;-75
2023/08/30 04:28:19;;;;;;;10.18;5.10;;;;;;;22.36;52.77;93779.59;4186162;28;20052;-76
2023/08/30 04:30:21;;;;;;;12.13;5.32;;;;;;;22.43;52.05;93788.16;4191890;28;20070;-75
2023/08/30 04:32:22;;;;;;;10.98;5.63;;;;;;;22.48;52.19;93797.03;4190231;28;20052;-74
2023/08/30 04:34:24;;;;;;;13.30;4.63;;;;;;;22.46;51.96;93799.16;4178065;28;20071;-75
2023/08/30 04:36:26;;;;;;;8.90;4.70;;;;;;;22.42;51.37;93808.72;4186765;28;20126;-75
2023/08/30 04:38:27;;;;;;;15.57;5.22;;;;;;;22.35;51.52;93818.81;4188024;28;20083;-76
2023/08/30 04:40:30;;;;;;;10.50;5.13;;;;;;;22.29;51.45;93814.47;4187147;28;20049;-75
2023/08/30 04:42:32;;;;;;;10.50;5.15;;;;;;;22.20;51.45;93822.09;4174989;28;20052;-76
2023/08/30 04:44:34;;;;;;;8.52;5.38;;;;;;;21.70;53.59;93815.16;4171543;28;20091;-76
2023/08/30 04:46:36;;;;;;;14.17;5.83;;;;;;;21.54;54.12;93806.22;4189931;28;20048;-76
2023/08/30 04:48:38;;;;;;;10.88;4.93;;;;;;;21.54;53.99;93808.88;4189237;28;20379;-76
2023/08/30 04:50:40;;;;;;;14.43;5.55;;;;;;;21.58;54.20;93817.97;4189417;28;20067;-75
2023/08/30 04:52:42;;;;;;;10.05;5.05;;;;;;;21.61;53.76;93820.13;4183579;28;20049;-78
2023/08/30 04:54:45;;;;;;;8.25;3.60;;;;;;;21.63;52.87;93809.25;4177792;28;20071;-72
2023/08/30 04:56:47;;;;;;;8.18;4.35;;;;;;;21.59;52.75;93806.25;4174439;28;20089;-75
2023/08/30 04:58:50;;;;;;;16.17;4.10;;;;;;;21.54;52.75;93813.41;4200720;28;20056;-76
2023/08/30 05:00:51;;;;;;;7.32;3.42;;;;;;;21.43;52.79;93807.16;4193892;28;20582;-75
2023/08/30 05:02:53;;;;;;;8.98;3.88;;;;;;;21.38;52.99;93804.38;4191119;28;20107;-75
2023/08/30 05:04:55;;;;;;;8.65;3.90;;;;;;;21.30;53.80;93804.81;4191466;28;20532;-76
2023/08/30 05:06:57;;;;;;;8.98;4.00;;;;;;;21.22;53.78;93811.38;4178921;28;20131;-77
2023/08/30 05:08:58;;;;;;;11.55;3.92;;;;;;;21.22;53.91;93804.19;4195384;28;20040;-76
2023/08/30 05:11:00;;;;;;;9.25;3.88;;;;;;;21.28;53.96;93799.75;4187570;28;20062;-73
2023/08/30 05:13:04;;;;;;;11.18;3.90;;;;;;;21.34;54.10;93800.59;4188489;28;20244;-76
2023/08/30 05:15:06;;;;;;;7.03;3.83;;;;;;;21.39;53.86;93798.00;4172555;28;20510;-74
2023/08/30 05:17:07;;;;;;;6.68;3.70;;;;;;;21.38;54.02;93799.03;4185711;28;20148;-75
2023/08/30 05:19:09;;;;;;;8.23;4.13;;;;;;;21.33;54.53;93810.44;4175423;28;20041;-75
2023/08/30 05:21:11;;;;;;;9.93;3.55;;;;;;;21.39;54.08;93800.66;4191825;28;20480;-76
2023/08/30 05:23:13;;;;;;;7.65;3.63;;;;;;;21.37;54.55;93802.78;4187186;28;20049;-77
2023/08/30 05:25:15;;;;;;;7.72;3.67;;;;;;;21.26;54.09;93807.16;4176150;28;20048;-76
2023/08/30 05:27:18;;;;;;;7.38;4.05;;;;;;;21.28;54.28;93808.53;4176700;28;20049;-74
2023/08/30 05:29:19;;;;;;;12.25;4.18;;;;;;;21.33;54.50;93809.66;4164590;28;20701;-77
2023/08/30 05:31:21;;;;;;;8.10;3.95;;;;;;;21.15;54.90;93810.75;4193807;28;20124;-77
2023/08/30 05:33:23;;;;;;;8.00;4.32;;;;;;;21.05;55.28;93820.19;4196935;28;20112;-74
2023/08/30 05:35:26;;;;;;;7.97;3.70;;;;;;;20.50;57.05;93826.28;4191741;28;20129;-76
2023/08/30 05:37:27;;;;;;;8.75;4.32;;;;;;;20.42;57.26;93829.34;4192507;28;20059;-74
2023/08/30 05:39:29;;;;;;;8.20;4.03;;;;;;;20.36;57.00;93817.00;4190582;28;20056;-75
2023/08/30 05:41:31;;;;;;;10.20;4.18;;;;;;;20.22;57.92;93813.84;4177929;28;20052;-73
2023/08/30 05:43:32;;;;;;;8.50;3.70;;;;;;;20.27;57.18;93811.28;4194631;28;20480;-77
2023/08/30 05:45:35;;;;;;;7.47;3.75;;;;;;;20.42;56.09;93811.53;4171579;28;20528;-78
2023/08/30 05:47:37;;;;;;;8.13;3.95;;;;;;;20.59;55.75;93808.09;4179441;28;20064;-74
2023/08/30 05:49:38;;;;;;;6.07;3.60;;;;;;;20.68;55.53;93811.16;4186748;28;20056;-76
2023/08/30 05:51:40;;;;;;;5.78;3.75;;;;;;;20.79;55.32;93803.06;4189595;28;20055;-75
2023/08/30 05:53:42;;;;;;;6.22;4.25;;;;;;;20.99;54.65;93793.75;4193419;28;20460;-75
2023/08/30 05:55:43;;;;;;;6.88;3.65;;;;;;;21.13;54.13;93805.66;4191225;28;20491;-75
2023/08/30 05:57:45;;;;;;;12.50;5.65;;;;;;;21.19;53.86;93801.22;4188950;28;20053;-76
2023/08/30 05:59:47;;;;;;;8.43;4.40;;;;;;;21.39;53.29;93806.00;4194906;28;20053;-75
2023/08/30 06:01:49;;;;;;;7.70;3.88;;;;;;;21.56;53.04;93806.75;4196427;28;20192;-76
2023/08/30 06:03:51;;;;;;;7.70;3.53;;;;;;;21.46;52.66;93814.63;4173255;28;20053;-77
2023/08/30 06:05:53;;;;;;;8.77;4.13;;;;;;;21.64;52.72;93809.00;4195402;28;20057;-75
2023/08/30 06:07:54;;;;;;;7.72;3.70;;;;;;;21.69;52.00;93805.56;4189841;28;20045;-76
2023/08/30 06:09:56;;;;;;;8.38;4.50;;;;;;;21.96;51.68;93802.94;4194504;28;20428;-76
2023/08/30 06:11:59;;;;;;;;;;;;;;;22.05;51.30;93809.44;4187586;28;20044;-75
2023/08/30 06:14:01;;;;;;;9.30;4.28;;;;;;;21.85;51.89;93806.53;4190681;28;19921;-77
2023/08/30 06:16:03;;;;;;;10.55;4.40;;;;;;;21.89;51.61;93800.44;4186348;28;20055;-77
2023/08/30 06:18:05;;;;;;;7.90;4.18;;;;;;;21.97;51.57;93801.88;4187361;28;20052;-74
2023/08/30 06:20:07;;;;;;;9.15;4.32;;;;;;;21.99;51.25;93807.75;4195535;28;20539;-74
2023/08/30 06:22:09;;;;;;;11.40;4.55;;;;;;;21.85;51.88;93809.19;4197798;28;20721;-74
2023/08/30 06:24:11;;;;;;;6.45;4.30;;;;;;;21.84;52.00;93797.75;4194535;28;20056;-75
2023/08/30 06:26:13;;;;;;;8.48;4.05;;;;;;;22.09;51.83;93815.03;4198497;28;20404;-77
2023/08/30 06:28:15;;;;;;;8.30;4.05;;;;;;;22.30;50.97;93813.41;4180342;28;20485;-75
2023/08/30 06:30:17;;;;;;;7.20;3.67;;;;;;;21.91;51.42;93816.22;4203683;28;20044;-74
2023/08/30 06:32:19;;;;;;;9.38;3.80;;;;;;;22.16;51.66;93818.34;4186373;28;20053;-75
2023/08/30 06:34:20;;;;;;;9.35;4.00;;;;;;;22.46;51.01;93809.81;4199320;28;20110;-75
2023/08/30 06:36:23;;;;;;;7.60;3.58;;;;;;;22.47;50.56;93815.97;4199603;28;20055;-76
2023/08/30 06:38:25;;;;;;;7.72;4.10;;;;;;;22.64;50.25;93810.50;4198353;28;20070;-75
2023/08/30 06:40:26;;;;;;;7.57;3.78;;;;;;;22.75;50.24;93822.84;4172828;28;20128;-75
2023/08/30 06:42:28;;;;;;;9.25;3.90;;;;;;;22.51;50.46;93813.59;4166242;28;20053;-76
2023/08/30 06:44:30;;;;;;;10.88;4.00;;;;;;;22.68;50.44;93819.59;4188608;28;20045;-77
2023/08/30 06:46:32;;;;;;;7.38;3.85;;;;;;;22.60;50.20;93817.41;4179083;28;20045;-77
2023/08/30 06:48:33;;;;;;;6.95;3.85;;;;;;;22.64;50.30;93816.63;4196268;28;20488;-78
2023/08/30 06:50:35;;;;;;;6.43;3.28;;;;;;;22.68;50.16;93811.59;4190308;28;20064;-76
2023/08/30 06:52:41;;;;;;;6.13;3.67;;;;;;;22.78;50.28;93817.00;4172902;28;20543;-77
2023/08/30 06:54:43;;;;;;;7.50;3.47;;;;;;;22.88;49.86;93813.59;4189405;28;20357;-78
2023/08/30 06:57:00;;;;;;;10.77;3.83;;;;;;;22.76;50.29;93812.97;4172120;28;20283;-76
2023/08/30 06:59:02;;;;;;;7.68;4.00;;;;;;;22.70;50.21;93820.16;4188378;28;20057;-76
2023/08/30 07:01:04;;;;;;;5.63;3.55;;;;;;;22.67;49.75;93821.47;4191796;28;20438;-77
2023/08/30 07:03:06;;;;;;;7.75;3.97;;;;;;;22.69;49.96;93813.19;4191929;28;20048;-75
2023/08/30 07:05:08;;;;;;;6.75;3.30;;;;;;;22.74;49.52;93826.59;4191707;28;20136;-76
2023/08/30 07:07:12;;;;;;;7.90;4.15;;;;;;;22.79;49.55;93818.59;4186204;28;20045;-78
2023/08/30 07:09:14;;;;;;;8.82;3.78;;;;;;;22.98;49.53;93816.34;4174006;28;20037;-76
2023/08/30 07:11:15;;;;;;;6.85;4.07;;;;;;;23.13;49.42;93809.50;4182067;28;20151;-76
2023/08/30 07:13:33;;;;;;;8.68;3.92;;;;;;;23.40;48.87;93806.69;4194984;28;20044;-78
2023/08/30 07:15:35;;;;;;;10.07;4.63;;;;;;;23.26;49.41;93811.72;4190756;28;20060;-77
2023/08/30 07:17:37;;;;;;;8.57;4.20;;;;;;;23.35;49.04;93809.34;4170946;28;20057;-74
2023/08/30 07:19:54;;;;;;;6.20;3.80;;;;;;;23.62;49.05;93803.88;4189307;28;20048;-77
2023/08/30 07:21:56;;;;;;;7.32;3.95;;;;;;;23.92;48.67;93805.88;4177075;28;20456;-78
2023/08/30 07:23:58;;;;;;;7.85;3.92;;;;;;;24.14;47.95;93810.19;4187148;28;20052;-76
2023/08/30 07:25:59;;;;;;;10.70;5.07;;;;;;;24.05;47.96;93821.41;4190106;28;20044;-76
2023/08/30 07:28:01;;;;;;;7.93;4.45;;;;;;;24.20;47.76;93815.28;4184910;28;20075;-75
2023/08/30 07:30:04;;;;;;;14.18;6.13;;;;;;;24.15;47.55;93819.81;4192552;28;20102;-76
2023/08/30 07:32:06;;;;;;;11.48;5.18;;;;;;;24.01;47.63;93823.00;4186785;28;20464;-75
2023/08/30 07:34:07;;;;;;;8.57;4.07;;;;;;;23.64;48.49;93815.06;4183751;28;20079;-77
2023/08/30 07:36:09;;;;;;;12.18;4.22;;;;;;;23.38;49.17;93823.00;4170194;28;20060;-75
2023/08/30 07:38:11;;;;;;;14.60;5.93;;;;;;;23.54;48.63;93825.75;4183866;28;20049;-76
2023/08/30 07:40:13;;;;;;;6.20;3.92;;;;;;;23.58;47.57;93824.97;4187341;28;20408;-75
2023/08/30 07:42:15;;;;;;;7.40;3.70;;;;;;;23.69;47.74;93815.13;4189637;28;20040;-77
2023/08/30 07:44:20;;;;;;;10.73;4.60;;;;;;;23.75;48.16;93811.41;4175654;28;20060;-75
2023/08/30 07:46:21;;;;;;;7.97;4.05;;;;;;;23.80;47.62;93810.63;4172183;28;20141;-77
2023/08/30 07:48:23;;;;;;;6.97;4.15;;;;;;;23.75;48.19;93813.25;4188578;28;20055;-76
2023/08/30 07:50:25;;;;;;;10.27;4.00;;;;;;;23.75;48.12;93805.22;4190094;28;20433;-75
2023/08/30 07:52:26;;;;;;;8.05;3.60;;;;;;;23.97;47.11;93805.88;4189457;28;20059;-75
2023/08/30 07:54:45;;;;;;;16.83;6.75;;;;;;;24.16;46.50;93811.53;4171045;28;20053;-76
2023/08/30 07:56:47;;;;;;;12.98;5.15;;;;;;;24.14;46.97;93816.34;4205181;28;20158;-77
2023/08/30 07:58:49;;;;;;;9.75;3.97;;;;;;;23.93;46.63;93810.13;4168383;28;20048;-75
2023/08/30 08:00:53;;;;;;;9.02;4.28;;;;;;;24.00;47.36;93813.34;4194619;28;20044;-80
2023/08/30 08:02:55;;;;;;;10.45;5.35;;;;;;;23.95;48.04;93825.94;4180196;28;20044;-78
2023/08/30 08:04:56;;;;;;;16.02;6.95;;;;;;;23.80;47.90;93821.34;4184587;28;20418;-76
2023/08/30 08:06:58;;;;;;;8.55;4.97;;;;;;;23.97;47.65;93816.56;4195599;28;20468;-75
2023/08/30 08:09:03;;;;;;;9.00;4.70;;;;;;;24.34;47.43;93810.19;4177921;28;20045;-78
2023/08/30 08:11:04;;;;;;;12.85;5.20;;;;;;;24.69;46.54;93805.94;4159055;28;20116;-78
2023/08/30 08:13:06;;;;;;;9.05;3.80;;;;;;;24.70;44.35;93802.22;4190595;28;20049;-76
2023/08/30 08:15:09;;;;;;;12.02;3.30;;;;;;;24.69;44.41;93812.13;4190107;28;20045;-78
2023/08/30 08:17:11;;;;;;;7.85;3.33;;;;;;;24.68;44.38;93810.50;4197246;28;20088;-74
2023/08/30 08:19:12;;;;;;;8.80;3.63;;;;;;;24.61;44.95;93820.69;4186213;28;20041;-78
2023/08/30 08:21:14;;;;;;;7.65;3.97;;;;;;;24.52;45.71;93817.75;4192648;28;20041;-77
2023/08/30 08:23:16;;;;;;;12.88;4.45;;;;;;;24.56;45.84;93827.91;4193918;28;20044;-77
2023/08/30 08:25:18;;;;;;;10.10;3.67;;;;;;;24.42;43.47;93820.38;4197178;28;20147;-75
2023/08/30 08:27:19;;;;;;;6.47;2.90;;;;;;;24.16;42.27;93827.59;4190514;28;20135;-77
2023/08/30 08:29:21;;;;;;;6.32;2.80;;;;;;;24.20;42.42;93823.31;4176334;28;20443;-76
2023/08/30 08:31:23;;;;;;;7.60;3.22;;;;;;;24.46;42.37;93829.50;4191981;28;20167;-76
2023/08/30 08:33:25;;;;;;;5.88;2.58;;;;;;;24.59;41.14;93830.06;4201934;28;20051;-77
2023/08/30 08:35:26;;;;;;;5.57;3.00;;;;;;;24.30;43.15;93822.50;4185594;28;20112;-77
2023/08/30 08:37:28;;;;;;;7.32;3.13;;;;;;;24.62;43.62;93822.28;4193610;28;20126;-77
2023/08/30 08:39:30;;;;;;;8.63;3.22;;;;;;;24.92;43.27;93820.69;4176015;28;20399;-77
2023/08/30 08:41:42;;;;;;;7.90;3.72;;;;;;;25.05;42.90;93819.31;4179439;28;20057;-75
2023/08/30 08:43:44;;;;;;;6.75;3.15;;;;;;;24.96;43.48;93831.66;4182798;28;20059;-76
2023/08/30 08:45:48;;;;;;;6.93;3.47;;;;;;;24.71;44.18;93841.31;4191814;28;20067;-77
2023/08/30 08:47:49;;;;;;;7.63;3.67;;;;;;;24.99;43.96;93828.44;4185596;28;20203;-77
2023/08/30 08:49:51;;;;;;;7.10;3.03;;;;;;;25.02;43.97;93825.22;4182795;28;20045;-77
2023/08/30 08:51:54;;;;;;;12.25;3.88;;;;;;;24.99;43.80;93821.19;4185905;28;20041;-75
2023/08/30 08:53:59;;;;;;;6.57;3.10;;;;;;;24.87;44.25;93820.69;4197327;28;20058;-76
2023/08/30 08:56:01;;;;;;;9.32;3.17;;;;;;;24.93;44.41;93816.94;4184675;28;20056;-78
2023/08/30 08:58:04;;;;;;;10.75;3.47;;;;;;;24.90;44.90;93823.63;4164580;28;20370;-76
2023/08/30 09:00:06;;;;;;;7.13;3.05;;;;;;;24.79;45.12;93815.88;4197825;28;20147;-75
2023/08/30 09:02:10;;;;;;;6.88;3.75;;;;;;;24.92;45.04;93809.97;4195769;28;20044;-79
2023/08/30 09:04:12;;;;;;;5.47;3.40;;;;;;;24.78;45.41;93814.25;4169171;28;20049;-73
2023/08/30 09:06:15;;;;;;;6.75;3.85;;;;;;;25.00;45.16;93811.31;4202849;28;20040;-75
2023/08/30 09:08:16;;;;;;;7.90;3.42;;;;;;;25.16;45.23;93804.81;4169412;28;20071;-75
2023/08/30 09:10:21;;;;;;;10.43;3.80;;;;;;;25.55;44.39;93809.56;4174522;28;20049;-77
2023/08/30 09:12:23;;;;;;;7.93;3.85;;;;;;;25.51;43.90;93812.00;4197057;28;20047;-76
2023/08/30 09:14:25;;;;;;;8.95;3.47;;;;;;;25.51;44.06;93806.63;4182234;28;20049;-77
2023/08/30 09:16:26;;;;;;;5.93;3.53;;;;;;;25.15;44.57;93808.59;4198779;28;20195;-74
2023/08/30 09:18:28;;;;;;;8.50;3.63;;;;;;;24.80;45.11;93804.91;4196125;28;20416;-76
2023/08/30 09:20:30;;;;;;;6.95;3.38;;;;;;;25.01;45.05;93800.28;4196892;28;20056;-77
2023/08/30 09:22:38;;;;;;;8.93;3.80;;;;;;;25.09;44.85;93799.75;4190271;28;20411;-79
2023/08/30 09:24:41;;;;;;;5.82;3.50;;;;;;;25.33;44.64;93788.47;4185991;28;20048;-75
2023/08/30 09:26:50;;;;;;;9.98;3.50;;;;;;;25.66;44.09;93788.84;4196021;28;20067;-76
2023/08/30 09:28:52;;;;;;;8.70;3.20;;;;;;;25.46;44.00;93793.22;4195499;28;20488;-79
2023/08/30 09:30:54;;;;;;;9.85;3.65;;;;;;;25.68;44.04;93795.56;4177840;28;20052;-78
2023/08/30 09:33:02;;;;;;;6.65;3.72;;;;;;;25.50;44.16;93806.91;4195405;28;20381;-78
2023/08/30 09:35:05;;;;;;;9.95;4.00;;;;;;;25.86;43.35;93796.03;4190413;28;20124;-78
2023/08/30 09:37:07;;;;;;;7.55;3.80;;;;;;;25.89;43.78;93795.50;4185347;28;20446;-76